Weather observations for the past three days for
Alma, Gratiot Community Airport
Imperial (Metric)
Date Time (edt) Wind (mph) Vis. (mi.) Weather Sky Cond. Temperature (ºF) Relative Humidity Wind Chill (°F) Heat Index (°F) Pressure Precipitation (in)
Air Dwpt 6 hour altimeter (in) sea level (mb) 1 hr 3 hr 6 hr
Max. Min.
06 12:55 NE 9 10.00 A Few Clouds FEW037 FEW046 75.2 57.2 54% 78 30.15 0.0
06 12:35 NE 8 10.00 Partly Cloudy FEW038 SCT044 73.4 57.2 57% 30.15 0.0
06 12:15 NE 9 10.00 Fair CLR 73.4 59 61% 30.16 0.0
06 11:55 NE 10 10.00 Fair CLR 73.4 59 61% 30.16 0.0
06 11:35 NE 8 10.00 Fair CLR 71.6 59 65% 30.16 0.0
06 11:16 NE 7 10.00 Fair CLR 71.6 60.8 69% 30.16 0.0
06 10:55 NE 7 10.00 Fair CLR 69.8 59 69% 30.15 0.0
06 10:35 NE 8 10.00 Fair CLR 68 59 73% 30.14 0.0
06 10:15 NE 9 10.00 Fair CLR 66.2 57.2 73% 30.14 0.0
06 09:55 NE 7 10.00 Fair CLR 66.2 57.2 73% 30.14 0.0
06 09:35 NE 7 10.00 Fair CLR 64.4 57.2 78% 30.15 0.0
06 09:15 NE 6 10.00 Fair CLR 62.6 57.2 83% 30.14 0.0
06 08:56 N 6 10.00 Fair CLR 60.8 57.2 88% 30.14 0.0
06 08:35 NE 6 10.00 Fair CLR 59 55.4 88% 30.14 0.0
06 08:15 N 3 10.00 Fair CLR 57.2 55.4 94% 30.13 0.0
06 07:55 Calm 10.00 Fair CLR 55.4 55.4 56.1 53.1 100% 30.13 0.0
06 07:35 N 3 10.00 Fair CLR 55.4 53.6 94% 30.12 0.0
06 07:15 N 2 10.00 Fair CLR 55.4 53.6 94% 30.12 0.0
06 06:55 N 2 10.00 Fair CLR 55.4 53.6 94% 30.12 0.0
06 06:36 NW 3 10.00 Fair CLR 53.6 53.6 100% 30.11 0.0
06 06:15 NW 2 10.00 Fair CLR 55.4 53.6 94% 30.11 0.0
06 05:55 N 2 10.00 Fair CLR 55.4 55.4 100% 30.11 0.0
06 05:35 NW 3 10.00 Fair CLR 55.4 55.4 100% 30.1 0.0
06 05:15 N 2 10.00 Fair CLR 53.6 53.6 100% 30.1 0.0
06 04:55 NW 2 10.00 Fair CLR 53.6 53.6 100% 30.1 0.0
06 04:35 NW 2 10.00 Fair CLR 55.4 55.4 100% 30.09 0.0
06 04:16 NW 2 10.00 Fair CLR 55.4 55.4 100% 30.09 0.0
06 03:55 NW 2 10.00 Fair CLR 55.4 55.4 100% 30.09 0.0
06 03:35 N 1 10.00 Fair CLR 55.4 55.4 100% 30.09 0.0
06 03:15 Vrbl 1 10.00 Fair CLR 55.4 55.4 100% 30.09 0.0
06 02:55 N 2 10.00 Fair CLR 55.4 55.4 100% 30.09 0.0
06 02:35 N 3 10.00 Fair CLR 55.4 55.4 100% 30.09 0.0
06 02:15 N 2 10.00 Fair CLR 55.4 55.4 100% 30.09 0.0
06 01:56 W 2 10.00 Fair CLR 55.4 53.6 94% 30.09 0.0
06 01:35 W 1 0.75 Fog/Mist VV005 55.4 55.4 100% 30.08 0.0
06 01:15 NW 1 10.00 Fair CLR 55.4 55.4 100% 30.08 0.0
06 00:55 NW 2 10.00 Fair CLR 57.2 55.4 94% 30.08 0.0
06 00:35 NW 3 10.00 Fair CLR 55.4 55.4 100% 30.07 0.0
06 00:15 Calm 10.00 Fair CLR 57.2 55.4 94% 30.07 0.0
05 23:55 NE 2 10.00 Fair CLR 59 57.2 94% 30.07 0.0
05 23:35 E 2 10.00 Fair CLR 59 57.2 94% 30.07 0.0
05 23:16 N 2 10.00 Fair CLR 59 57.2 94% 30.07 0.0
05 22:55 E 1 10.00 Fair CLR 60.8 57.2 88% 30.06 0.0
05 22:35 NE 2 10.00 Fair CLR 60.8 57.2 88% 30.07 0.0
05 22:15 NE 5 10.00 Fair CLR 62.6 57.2 83% 30.06 0.0
05 21:55 NE 5 10.00 Fair CLR 64.4 59 83% 30.06 0.0
05 21:35 NE 6 10.00 Fair CLR 62.6 59 88% 30.05 0.0
05 21:15 NE 6 10.00 Fair CLR 64.4 59 83% 30.04 0.0
05 20:56 NE 6 10.00 Fair CLR 64.4 59 83% 30.03 0.0
05 20:35 NE 6 10.00 Fair CLR 66.2 59 78% 30.03 0.0
05 20:15 NE 6 10.00 Fair CLR 66.2 60.8 83% 30.03 0.0
05 19:55 NE 5 10.00 Fair CLR 69.8 59 79.5 69.8 69% 30.02 0.0
05 19:35 NE 6 10.00 Fair CLR 71.6 59 65% 30.02 0.0
05 19:15 NE 8 10.00 Fair CLR 73.4 59 61% 30.01 0.0
05 18:55 NE 10 10.00 Fair CLR 75.2 59 57% 78 30.02 0.0
05 18:36 NE 9 10.00 Fair CLR 75.2 59 57% 78 30.01 0.0
05 18:15 NE 12 10.00 Fair CLR 77 59 54% 79 30.01 0.0
05 17:55 NE 13 10.00 Fair CLR 77 59 54% 79 30.01 0.0
05 17:35 NE 13 10.00 Fair CLR 77 59 54% 79 30 0.0
05 17:15 E 10 10.00 Fair CLR 77 60.8 57% 79 30 0.0
05 16:55 NE 10 10.00 A Few Clouds FEW043 78.8 60.8 54% 80 30 0.0
05 16:35 NE 10 G 16 10.00 A Few Clouds FEW043 78.8 60.8 54% 80 30 0.0
05 16:16 NE 14 G 17 10.00 Fair CLR 77 60.8 57% 79 30 0.0
05 15:55 NE 13 G 16 10.00 Fair CLR 78.8 60.8 54% 80 30 0.0
05 13:56 E 10 G 17 10.00 Mostly Cloudy BKN080 78.8 62.6 58% 80 30.01 0.0
05 13:35 NE 10 G 16 10.00 Mostly Cloudy BKN080 78.8 60.8 54% 80 30.01 0.0
05 13:15 E 10 10.00 A Few Clouds FEW080 77 60.8 57% 79 30.01 0.0
05 12:55 E 9 10.00 Fair CLR 77 62.6 61% 79 30.01 0.0
05 12:35 E 9 10.00 Partly Cloudy FEW029 SCT075 75.2 62.6 65% 77 30.01 0.0
05 12:15 SE 6 10.00 Mostly Cloudy BKN075 BKN100 75.2 64.4 69% 77 30.02 0.0
05 11:55 E 9 10.00 Overcast FEW022 OVC075 73.4 64.4 74% 30.02 0.0
05 11:36 E 9 10.00 Overcast SCT022 OVC075 73.4 64.4 74% 30.02 0.0
05 11:15 E 6 10.00 Overcast FEW020 OVC075 71.6 64.4 78% 30.02 0.0
05 10:55 E 9 10.00 Overcast OVC075 71.6 64.4 78% 30.01 0.0
05 10:35 E 12 10.00 Overcast SCT038 OVC075 69.8 62.6 78% 30.01 0.0
05 10:15 E 9 10.00 Mostly Cloudy BKN038 69.8 64.4 83% 30.01 0.0
05 09:55 E 9 10.00 Overcast SCT026 BKN040 OVC080 69.8 64.4 83% 30 0.0
05 09:35 E 9 10.00 Overcast SCT022 BKN038 OVC095 68 64.4 88% 30 0.0
05 09:16 NE 7 10.00 Overcast FEW025 BKN037 OVC044 68 64.4 88% 30.01 0.0
05 08:55 NE 7 10.00 Overcast SCT044 OVC050 66.2 64.4 94% 30.01 0.0 0.07
05 08:35 E 8 10.00 Overcast FEW041 OVC050 66.2 64.4 94% 30 0.0
05 08:15 E 8 10.00 Overcast BKN041 OVC050 66.2 64.4 94% 29.99 0.0
05 07:55 E 7 10.00 Overcast FEW011 SCT023 OVC039 66.2 64.4 67.5 64.2 94% 29.99 0.0 0.08
05 07:35 NE 3 10.00 Overcast BKN011 BKN023 OVC041 64.4 64.4 100% 29.99 0.0
05 07:15 NE 6 10.00 Overcast FEW011 OVC043 64.4 62.6 94% 29.98 0.0
05 06:56 E 7 10.00 Light Rain BKN038 OVC046 64.4 62.6 94% 29.97 0.0
05 06:35 NE 7 5.00 Light Rain Fog/Mist BKN036 BKN050 BKN055 64.4 62.6 94% 29.97 0.0
05 06:15 NE 10 7.00 Light Rain BKN034 BKN042 BKN050 64.4 62.6 94% 29.98 0.0
05 05:55 N 7 10.00 Overcast BKN028 OVC032 66.2 62.6 88% 29.98 0.0
05 05:35 NE 6 10.00 Overcast OVC028 66.2 62.6 88% 29.98 0.0
05 05:15 E 6 10.00 Overcast FEW019 BKN028 OVC044 66.2 62.6 88% 29.98 0.0
05 04:55 E 7 10.00 Light Rain FEW018 BKN028 OVC048 66.2 62.6 88% 29.97 0.0
05 04:36 NE 6 10.00 Overcast FEW018 OVC024 66.2 62.6 88% 29.97 0.0
05 04:15 NE 5 10.00 Overcast BKN024 OVC044 66.2 62.6 88% 29.97 0.0
05 03:55 E 5 10.00 Overcast OVC044 66.2 62.6 88% 29.96 0.0
05 03:35 E 7 10.00 Overcast OVC044 66.2 62.6 88% 29.96 0.0
05 03:15 NE 5 10.00 Overcast OVC046 66.2 64.4 94% 29.96 0.0
05 02:55 NE 6 10.00 Mostly Cloudy FEW006 BKN046 66.2 64.4 94% 29.96 0.0
05 02:35 NE 8 9.00 Mostly Cloudy SCT006 BKN023 66.2 66.2 100% 29.95 0.0
05 02:16 NE 6 10.00 Overcast FEW006 OVC021 68 66.2 94% 29.96 0.0
05 01:55 NE 5 10.00 Overcast SCT008 OVC021 68 66.2 75.7 67.5 94% 29.97 0.0
05 01:35 NE 6 10.00 Overcast FEW006 BKN021 OVC070 68 66.2 94% 29.97 0.0
05 01:15 NE 8 10.00 Overcast SCT008 BKN023 OVC075 68 66.2 94% 29.97 0.0
05 00:55 NE 7 10.00 Overcast OVC008 68 66.2 94% 29.97 0.0
05 00:35 NE 7 10.00 Overcast OVC008 68 66.2 94% 29.97 0.0
05 00:15 NE 5 10.00 Overcast OVC008 68 66.2 94% 29.97 0.0
04 23:56 NE 5 10.00 Overcast BKN010 BKN022 OVC070 68 66.2 94% 29.97 0.0
04 23:35 NE 6 10.00 Overcast OVC070 68 66.2 94% 29.98 0.0
04 23:15 N 3 10.00 Overcast OVC070 68 66.2 94% 29.98 0.0
04 22:55 E 3 10.00 Mostly Cloudy BKN070 BKN080 BKN100 68 66.2 94% 29.97 0.0
04 22:35 NE 6 10.00 Mostly Cloudy SCT050 BKN075 BKN080 68 66.2 94% 29.98 0.0
04 22:15 E 2 10.00 Overcast OVC050 69.8 66.2 88% 29.99 0.0
04 21:55 E 7 10.00 Overcast OVC050 69.8 66.2 88% 29.98 0.0
04 21:36 NE 7 10.00 Overcast OVC050 69.8 68 94% 29.99 0.0
04 21:15 NE 7 10.00 Overcast OVC050 69.8 68 94% 29.99 0.0
04 20:55 E 9 10.00 Overcast OVC050 71.6 68 88% 29.99 0.0
04 20:35 E 10 10.00 Overcast OVC050 71.6 68 88% 29.98 0.0
04 20:15 E 10 10.00 Overcast OVC050 73.4 69.8 89% 29.97 0.0
04 19:55 NE 5 10.00 Overcast OVC050 75.2 69.8 80.6 75 83% 75 29.96 0.0
04 19:35 NE 5 10.00 Overcast OVC050 77 69.8 79% 79 29.96 0.0
04 19:16 NE 5 10.00 Overcast OVC050 77 71.6 83% 78 29.95 0.0
04 18:55 E 3 10.00 Overcast OVC055 77 71.6 83% 78 29.95 0.0
04 18:35 NE 3 10.00 Overcast OVC055 78.8 69.8 74% 81 29.94 0.0
04 18:15 NE 5 10.00 Overcast OVC055 78.8 69.8 74% 81 29.94 0.0
04 17:55 NE 6 10.00 Overcast OVC055 78.8 69.8 74% 81 29.93 0.0
04 17:35 N 7 10.00 Mostly Cloudy SCT037 SCT043 BKN055 78.8 69.8 74% 81 29.93 0.0
04 17:15 N 6 10.00 Mostly Cloudy FEW027 BKN037 78.8 68 70% 81 29.94 0.0
04 16:56 NW 5 10.00 Mostly Cloudy SCT023 SCT028 BKN060 78.8 69.8 74% 81 29.94 0.0
04 16:35 W 7 10.00 Mostly Cloudy SCT022 BKN050 80.6 69.8 70% 84 29.94 0.0
04 16:15 Vrbl 5 10.00 Mostly Cloudy BKN050 78.8 69.8 74% 81 29.94 0.0
04 15:55 W 5 10.00 Partly Cloudy SCT055 78.8 69.8 74% 81 29.94 0.0
04 15:35 W 5 10.00 Fair CLR 78.8 69.8 74% 81 29.95 0.0
04 15:15 W 5 10.00 Fair CLR 78.8 69.8 74% 81 29.95 0.0
04 14:55 Vrbl 5 10.00 Fair CLR 78.8 69.8 74% 81 29.95 0.0
04 14:36 Vrbl 5 10.00 Fair CLR 78.8 69.8 74% 81 29.95 0.0
04 14:15 SW 6 10.00 Fair CLR 77 69.8 79% 79 29.95 0.0
04 13:55 SW 6 10.00 Fair CLR 75.2 69.8 75.4 67.6 83% 75 29.95 0.0
04 13:35 S 6 10.00 Fair CLR 73.4 69.8 89% 29.95 0.0
04 13:15 S 6 10.00 Fair CLR 73.4 69.8 89% 29.96 0.0
04 12:55 S 7 10.00 A Few Clouds FEW003 71.6 69.8 94% 29.97 0.0
04 12:35 S 6 10.00 Partly Cloudy SCT003 71.6 69.8 94% 29.97 0.0
04 12:16 S 7 10.00 Partly Cloudy SCT003 71.6 69.8 94% 29.97 0.0
04 11:55 SE 3 10.00 A Few Clouds FEW003 71.6 69.8 94% 29.97 0.0
04 11:35 SE 7 10.00 Fair CLR 69.8 69.8 100% 29.97 0.0
04 11:15 SE 8 10.00 Fair CLR 69.8 69.8 100% 29.98 0.0
04 10:55 SE 3 10.00 A Few Clouds FEW006 69.8 69.8 100% 29.99 0.0 0.01
04 10:35 E 7 10.00 Mostly Cloudy BKN004 69.8 69.8 100% 29.99 0.0
04 10:15 NE 8 10.00 Overcast OVC004 69.8 68 94% 29.98 0.0
04 09:56 E 6 10.00 Light Rain BKN004 BKN039 OVC085 68 68 100% 29.96 0.0
04 09:35 S 13 6.00 Light Rain Fog/Mist FEW065 BKN095 OVC120 68 68 100% 29.95 0.0
04 09:15 S 7 6.00 Light Rain Fog/Mist FEW028 OVC110 68 68 100% 29.99 0.0
04 08:55 S 6 5.00 Light Rain Fog/Mist SCT031 BKN070 OVC110 68 68 100% 30 0.0 0.08
04 08:35 S 5 4.00 Light Rain Fog/Mist FEW005 OVC033 68 68 100% 30.01 0.0
04 08:15 N 6 5.00 Light Rain Fog/Mist SCT035 SCT065 OVC090 68 68 100% 30.01 0.0
04 07:55 NE 2 4.00 Light Rain Fog/Mist OVC100 68 68 67.8 64.8 100% 29.99 0.0 0.07
04 07:36 NW 3 8.00 Light Rain FEW050 SCT055 OVC100 68 68 100% 29.98 0.0
04 07:15 NW 3 9.00 Light Rain BKN050 BKN055 OVC080 68 68 100% 29.99 0.0
04 06:55 SW 1 9.00 Light Rain BKN065 OVC075 68 68 100% 29.98 0.0 0.01
04 06:35 S 3 10.00 Light Rain BKN065 OVC075 68 68 100% 29.97 0.0
04 06:15 S 5 10.00 Overcast BKN065 BKN075 OVC095 68 68 100% 29.95 0.0
04 05:55 NE 2 10.00 Mostly Cloudy BKN080 BKN095 66.2 66.2 100% 29.95 0.0
04 05:35 E 3 10.00 Partly Cloudy SCT080 SCT095 68 68 100% 29.94 0.0
04 05:16 SE 6 10.00 A Few Clouds FEW090 66.2 66.2 100% 29.93 0.0
04 04:55 S 5 10.00 Mostly Cloudy BKN090 66.2 66.2 100% 29.96 0.0
04 04:35 S 2 10.00 Mostly Cloudy BKN090 68 66.2 94% 29.97 0.0
04 04:15 S 3 10.00 Mostly Cloudy FEW075 BKN090 BKN120 66.2 66.2 100% 29.95 0.0
04 03:55 Calm 10.00 Mostly Cloudy BKN100 BKN120 66.2 66.2 100% 29.96 0.0
04 03:35 SE 1 7.00 Fog/Mist BKN100 66.2 66.2 100% 29.96 0.0
04 03:15 NE 3 6.00 Fog/Mist BKN100 66.2 66.2 100% 29.98 0.0
04 02:56 Calm 1.25 Fog/Mist CLR 66.2 66.2 100% 29.97 0.0
04 02:35 E 3 1.50 Fog/Mist SCT001 BKN110 66.2 66.2 100% 29.97 0.0
04 02:15 E 2 0.75 Fog/Mist SCT001 BKN110 66.2 66.2 100% 29.98 0.0
04 01:55 Calm 0.75 Fog/Mist VV005 64.4 64.4 72.9 64.8 100% 30 0.0
04 01:35 NW 1 0.50 Fog VV005 66.2 66.2 100% 29.99 0.0
04 01:15 E 3 0.15 Fog VV000 66.2 66.2 100% 29.98 0.0
04 00:55 E 2 0.25 Fog VV002 66.2 66.2 100% 29.98 0.0
04 00:36 Calm 0.25 Fog BKN001 66.2 66.2 100% 29.99 0.0
04 00:15 S 1 0.50 Fog VV005 66.2 66.2 100% 30 0.0
03 23:55 E 1 0.50 Fog VV005 66.2 66.2 100% 29.99 0.0
03 23:35 N 2 0.25 Fog VV002 66.2 66.2 100% 29.99 0.0
03 23:15 E 3 0.25 Fog VV002 66.2 66.2 100% 29.98 0.0
03 22:55 NE 1 0.75 Fog/Mist VV005 68 66.2 94% 29.99 0.0
03 22:35 N 1 3.00 Fog/Mist CLR 68 66.2 94% 29.99 0.0
03 22:16 N 2 1.75 Fog/Mist CLR 68 66.2 94% 29.98 0.0
03 21:55 Calm 8.00 Partly Cloudy SCT120 68 68 100% 29.98 0.0
03 21:35 E 3 10.00 Mostly Cloudy BKN120 68 68 100% 29.97 0.0
03 21:15 NE 2 10.00 Partly Cloudy SCT120 68 68 100% 29.97 0.0
03 20:55 NE 2 10.00 Fair CLR 68 68 100% 29.96 0.0
03 20:35 SW 3 10.00 Fair CLR 69.8 69.8 100% 29.96 0.0
03 20:15 S 3 10.00 Fair CLR 69.8 69.8 100% 29.94 0.0
03 19:56 SW 1 10.00 Fair CLR 73.4 69.8 89% 29.94 0.0
03 19:35 S 3 10.00 Fair CLR 73.4 69.8 89% 29.94 0.0
03 19:15 S 7 10.00 Fair CLR 75.2 69.8 83% 75 29.94 0.0
03 18:55 S 5 10.00 Fair CLR 75.2 69.8 83% 75 29.94 0.0
03 18:35 S 8 10.00 A Few Clouds FEW009 75.2 69.8 83% 75 29.94 0.0
03 18:15 SW 10 10.00 Partly Cloudy SCT009 75.2 71.6 89% 75 29.94 0.0
03 17:55 S 9 10.00 Partly Cloudy SCT007 75.2 71.6 89% 75 29.93 0.0
03 17:36 S 9 10.00 Mostly Cloudy BKN007 73.4 71.6 94% 29.93 0.0
03 17:15 SE 7 10.00 Mostly Cloudy BKN007 BKN120 73.4 69.8 89% 29.93 0.0
03 16:55 SE 3 10.00 Mostly Cloudy SCT007 BKN120 71.6 69.8 94% 29.94 0.0
03 16:35 NE 6 10.00 Mostly Cloudy SCT007 SCT011 BKN120 71.6 69.8 94% 29.95 0.0
03 16:15 NE 6 10.00 Partly Cloudy FEW010 SCT075 SCT085 71.6 69.8 94% 29.97 0.0
03 15:55 NE 6 10.00 Mostly Cloudy BKN075 BKN085 BKN120 71.6 68 88% 29.98 0.0 0.05
03 15:35 NE 3 10.00 Light Rain FEW033 SCT100 BKN120 68 68 100% 29.99 0.0
03 15:16 N 9 10.00 Light Rain SCT037 BKN048 OVC110 68 68 100% 29.99 0.0
03 14:55 W 6 1.25 Rain Fog/Mist SCT045 BKN070 OVC080 68 66.2 94% 30.04 0.0 0.41
03 14:35 NW 10 4.00 Rain Fog/Mist SCT055 BKN070 BKN085 68 66.2 94% 30.02 0.0
03 14:15 NW 10 10.00 Rain SCT006 BKN049 OVC085 68 66.2 94% 29.98 0.0
03 13:55 N 23 G 32 2.50 Rain Fog/Mist and Breezy SCT006 BKN022 OVC060 69.8 68 94% 29.98 0.0 0.08
03 13:35 SW 7 4.00 Fog/Mist SCT022 BKN046 BKN060 75.2 73.4 94% 74 29.93 0.0
03 13:15 S 5 5.00 Fog/Mist SCT026 SCT050 BKN060 77 75.2 94% 78 29.91 0.0
Date Time (edt) Wind (mph) Vis. (mi.) Weather Sky Cond. Air Dwpt Max. Min. Relative Humidity Wind Chill (°F) Heat Index (°F) altimeter (in) sea level (mb) 1 hr 3 hr 6 hr
6 hour
Temperature (ºF) Pressure Precipitation (in)